sensor_id;sensor_type;location;lat;lon;timestamp;P1;durP1;ratioP1;P2;durP2;ratioP2
73919;SDS011;62266;53.348;-1.496;2023-04-24T00:00:10;7.38;;;3.15;;
73919;SDS011;62266;53.348;-1.496;2023-04-24T00:02:58;7.18;;;2.35;;
73919;SDS011;62266;53.348;-1.496;2023-04-24T00:05:43;4.93;;;2.25;;
73919;SDS011;62266;53.348;-1.496;2023-04-24T00:08:27;7.83;;;2.10;;
73919;SDS011;62266;53.348;-1.496;2023-04-24T00:11:14;4.80;;;2.13;;
73919;SDS011;62266;53.348;-1.496;2023-04-24T00:13:58;4.55;;;1.50;;
73919;SDS011;62266;53.348;-1.496;2023-04-24T00:16:43;4.20;;;1.73;;
73919;SDS011;62266;53.348;-1.496;2023-04-24T00:19:27;6.40;;;1.55;;
73919;SDS011;62266;53.348;-1.496;2023-04-24T00:22:12;2.77;;;1.60;;
73919;SDS011;62266;53.348;-1.496;2023-04-24T00:24:58;5.47;;;1.73;;
73919;SDS011;62266;53.348;-1.496;2023-04-24T00:27:43;7.97;;;1.58;;
73919;SDS011;62266;53.348;-1.496;2023-04-24T00:30:27;5.30;;;1.55;;
73919;SDS011;62266;53.348;-1.496;2023-04-24T00:33:11;3.65;;;1.50;;
73919;SDS011;62266;53.348;-1.496;2023-04-24T00:35:56;5.63;;;2.03;;
73919;SDS011;62266;53.348;-1.496;2023-04-24T00:38:40;3.95;;;1.52;;
73919;SDS011;62266;53.348;-1.496;2023-04-24T00:41:24;5.57;;;1.95;;
73919;SDS011;62266;53.348;-1.496;2023-04-24T00:44:08;4.22;;;1.80;;
73919;SDS011;62266;53.348;-1.496;2023-04-24T00:46:52;4.70;;;1.75;;
73919;SDS011;62266;53.348;-1.496;2023-04-24T00:49:38;5.83;;;1.77;;
73919;SDS011;62266;53.348;-1.496;2023-04-24T00:52:22;4.32;;;1.52;;
73919;SDS011;62266;53.348;-1.496;2023-04-24T00:55:08;5.18;;;1.42;;
73919;SDS011;62266;53.348;-1.496;2023-04-24T00:57:52;4.82;;;1.60;;
73919;SDS011;62266;53.348;-1.496;2023-04-24T01:00:36;5.82;;;1.40;;
73919;SDS011;62266;53.348;-1.496;2023-04-24T01:03:21;3.87;;;1.57;;
73919;SDS011;62266;53.348;-1.496;2023-04-24T01:06:06;3.60;;;1.50;;
73919;SDS011;62266;53.348;-1.496;2023-04-24T01:08:51;6.25;;;1.35;;
73919;SDS011;62266;53.348;-1.496;2023-04-24T01:11:35;2.28;;;1.25;;
73919;SDS011;62266;53.348;-1.496;2023-04-24T01:14:20;6.13;;;1.50;;
73919;SDS011;62266;53.348;-1.496;2023-04-24T01:17:04;5.57;;;1.33;;
73919;SDS011;62266;53.348;-1.496;2023-04-24T01:19:49;5.50;;;2.13;;
73919;SDS011;62266;53.348;-1.496;2023-04-24T01:22:33;3.35;;;1.50;;
73919;SDS011;62266;53.348;-1.496;2023-04-24T01:25:18;5.00;;;1.50;;
73919;SDS011;62266;53.348;-1.496;2023-04-24T01:28:03;5.30;;;1.75;;
73919;SDS011;62266;53.348;-1.496;2023-04-24T01:30:48;4.77;;;1.17;;
73919;SDS011;62266;53.348;-1.496;2023-04-24T01:33:32;1.83;;;1.10;;
73919;SDS011;62266;53.348;-1.496;2023-04-24T01:36:22;4.57;;;1.33;;
73919;SDS011;62266;53.348;-1.496;2023-04-24T01:39:37;2.28;;;1.38;;
73919;SDS011;62266;53.348;-1.496;2023-04-24T01:45:05;3.40;;;1.00;;
73919;SDS011;62266;53.348;-1.496;2023-04-24T01:47:50;3.55;;;1.00;;
73919;SDS011;62266;53.348;-1.496;2023-04-24T01:50:47;4.05;;;1.23;;
73919;SDS011;62266;53.348;-1.496;2023-04-24T01:53:40;5.35;;;1.30;;
73919;SDS011;62266;53.348;-1.496;2023-04-24T01:56:31;3.05;;;1.10;;
73919;SDS011;62266;53.348;-1.496;2023-04-24T01:59:19;3.80;;;1.30;;
73919;SDS011;62266;53.348;-1.496;2023-04-24T02:02:07;3.20;;;1.25;;
73919;SDS011;62266;53.348;-1.496;2023-04-24T02:04:52;3.28;;;1.20;;
73919;SDS011;62266;53.348;-1.496;2023-04-24T02:07:36;2.97;;;1.08;;
73919;SDS011;62266;53.348;-1.496;2023-04-24T02:10:21;2.67;;;1.00;;
73919;SDS011;62266;53.348;-1.496;2023-04-24T02:13:05;2.87;;;1.20;;
73919;SDS011;62266;53.348;-1.496;2023-04-24T02:15:49;6.60;;;1.00;;
73919;SDS011;62266;53.348;-1.496;2023-04-24T02:18:33;5.07;;;1.10;;
73919;SDS011;62266;53.348;-1.496;2023-04-24T02:21:17;2.28;;;1.00;;
73919;SDS011;62266;53.348;-1.496;2023-04-24T02:24:02;3.00;;;1.25;;
73919;SDS011;62266;53.348;-1.496;2023-04-24T02:26:46;2.77;;;0.90;;
73919;SDS011;62266;53.348;-1.496;2023-04-24T02:29:35;3.58;;;1.25;;
73919;SDS011;62266;53.348;-1.496;2023-04-24T02:32:19;5.13;;;1.13;;
73919;SDS011;62266;53.348;-1.496;2023-04-24T02:35:04;2.85;;;1.50;;
73919;SDS011;62266;53.348;-1.496;2023-04-24T02:37:48;5.45;;;1.48;;
73919;SDS011;62266;53.348;-1.496;2023-04-24T02:40:33;3.30;;;1.40;;
73919;SDS011;62266;53.348;-1.496;2023-04-24T02:43:17;3.60;;;0.95;;
73919;SDS011;62266;53.348;-1.496;2023-04-24T02:46:01;2.60;;;1.00;;
73919;SDS011;62266;53.348;-1.496;2023-04-24T02:48:46;3.38;;;1.10;;
73919;SDS011;62266;53.348;-1.496;2023-04-24T02:51:30;3.80;;;1.00;;
73919;SDS011;62266;53.348;-1.496;2023-04-24T02:54:14;4.43;;;0.90;;
73919;SDS011;62266;53.348;-1.496;2023-04-24T02:56:58;3.28;;;0.80;;
73919;SDS011;62266;53.348;-1.496;2023-04-24T02:59:42;4.35;;;1.23;;
73919;SDS011;62266;53.348;-1.496;2023-04-24T03:02:27;12.82;;;2.17;;
73919;SDS011;62266;53.348;-1.496;2023-04-24T03:05:15;3.17;;;1.13;;
73919;SDS011;62266;53.348;-1.496;2023-04-24T03:08:02;2.67;;;0.97;;
73919;SDS011;62266;53.348;-1.496;2023-04-24T03:10:47;5.53;;;1.13;;
73919;SDS011;62266;53.348;-1.496;2023-04-24T03:13:31;4.07;;;1.33;;
73919;SDS011;62266;53.348;-1.496;2023-04-24T03:16:15;5.22;;;1.45;;
73919;SDS011;62266;53.348;-1.496;2023-04-24T03:19:02;4.72;;;1.40;;
73919;SDS011;62266;53.348;-1.496;2023-04-24T03:21:46;3.80;;;1.03;;
73919;SDS011;62266;53.348;-1.496;2023-04-24T03:24:30;5.63;;;1.17;;
73919;SDS011;62266;53.348;-1.496;2023-04-24T03:27:15;4.07;;;1.33;;
73919;SDS011;62266;53.348;-1.496;2023-04-24T03:29:59;3.78;;;1.33;;
73919;SDS011;62266;53.348;-1.496;2023-04-24T03:32:44;4.28;;;1.25;;
73919;SDS011;62266;53.348;-1.496;2023-04-24T03:35:28;3.27;;;1.23;;
73919;SDS011;62266;53.348;-1.496;2023-04-24T03:38:12;2.83;;;1.27;;
73919;SDS011;62266;53.348;-1.496;2023-04-24T03:40:56;4.68;;;1.73;;
73919;SDS011;62266;53.348;-1.496;2023-04-24T03:43:40;5.30;;;1.35;;
73919;SDS011;62266;53.348;-1.496;2023-04-24T03:46:24;5.60;;;1.67;;
73919;SDS011;62266;53.348;-1.496;2023-04-24T03:49:08;4.63;;;1.23;;
73919;SDS011;62266;53.348;-1.496;2023-04-24T03:51:52;5.18;;;1.00;;
73919;SDS011;62266;53.348;-1.496;2023-04-24T03:54:36;4.88;;;0.90;;
73919;SDS011;62266;53.348;-1.496;2023-04-24T03:57:20;5.78;;;1.25;;
73919;SDS011;62266;53.348;-1.496;2023-04-24T04:00:05;4.28;;;1.48;;
73919;SDS011;62266;53.348;-1.496;2023-04-24T04:02:49;5.60;;;1.63;;
73919;SDS011;62266;53.348;-1.496;2023-04-24T04:05:33;3.05;;;1.13;;
73919;SDS011;62266;53.348;-1.496;2023-04-24T04:08:17;4.88;;;1.30;;
73919;SDS011;62266;53.348;-1.496;2023-04-24T04:11:01;3.65;;;0.85;;
73919;SDS011;62266;53.348;-1.496;2023-04-24T04:13:46;2.72;;;1.10;;
73919;SDS011;62266;53.348;-1.496;2023-04-24T04:16:33;5.27;;;1.10;;
73919;SDS011;62266;53.348;-1.496;2023-04-24T04:19:19;6.30;;;1.15;;
73919;SDS011;62266;53.348;-1.496;2023-04-24T04:22:04;4.95;;;1.30;;
73919;SDS011;62266;53.348;-1.496;2023-04-24T04:24:48;2.85;;;0.77;;
73919;SDS011;62266;53.348;-1.496;2023-04-24T04:27:34;3.88;;;1.30;;
73919;SDS011;62266;53.348;-1.496;2023-04-24T04:30:19;4.17;;;1.10;;
73919;SDS011;62266;53.348;-1.496;2023-04-24T04:33:04;4.57;;;1.35;;
73919;SDS011;62266;53.348;-1.496;2023-04-24T04:35:48;5.32;;;1.33;;
73919;SDS011;62266;53.348;-1.496;2023-04-24T04:41:31;5.85;;;1.90;;
73919;SDS011;62266;53.348;-1.496;2023-04-24T04:44:19;3.10;;;1.30;;
73919;SDS011;62266;53.348;-1.496;2023-04-24T04:47:03;5.53;;;1.45;;
73919;SDS011;62266;53.348;-1.496;2023-04-24T04:49:49;4.85;;;1.42;;
73919;SDS011;62266;53.348;-1.496;2023-04-24T04:52:34;5.40;;;1.40;;
73919;SDS011;62266;53.348;-1.496;2023-04-24T04:55:18;5.38;;;1.40;;
73919;SDS011;62266;53.348;-1.496;2023-04-24T04:58:06;3.07;;;1.50;;
73919;SDS011;62266;53.348;-1.496;2023-04-24T05:00:50;6.13;;;1.63;;
73919;SDS011;62266;53.348;-1.496;2023-04-24T05:03:34;5.55;;;1.33;;
73919;SDS011;62266;53.348;-1.496;2023-04-24T05:06:18;5.47;;;1.30;;
73919;SDS011;62266;53.348;-1.496;2023-04-24T05:09:02;2.50;;;0.90;;
73919;SDS011;62266;53.348;-1.496;2023-04-24T05:11:47;3.40;;;1.10;;
73919;SDS011;62266;53.348;-1.496;2023-04-24T05:14:30;6.85;;;1.45;;
73919;SDS011;62266;53.348;-1.496;2023-04-24T05:17:14;4.72;;;1.35;;
73919;SDS011;62266;53.348;-1.496;2023-04-24T05:19:59;4.20;;;1.27;;
73919;SDS011;62266;53.348;-1.496;2023-04-24T05:22:44;6.78;;;1.10;;
73919;SDS011;62266;53.348;-1.496;2023-04-24T05:25:28;3.10;;;0.90;;
73919;SDS011;62266;53.348;-1.496;2023-04-24T05:28:12;5.53;;;1.10;;
73919;SDS011;62266;53.348;-1.496;2023-04-24T05:30:56;4.50;;;1.00;;
73919;SDS011;62266;53.348;-1.496;2023-04-24T05:33:40;4.55;;;1.85;;
73919;SDS011;62266;53.348;-1.496;2023-04-24T05:36:24;5.38;;;1.20;;
73919;SDS011;62266;53.348;-1.496;2023-04-24T05:39:09;7.10;;;1.40;;
73919;SDS011;62266;53.348;-1.496;2023-04-24T05:41:53;4.85;;;1.55;;
73919;SDS011;62266;53.348;-1.496;2023-04-24T05:44:38;4.85;;;1.33;;
73919;SDS011;62266;53.348;-1.496;2023-04-24T05:47:22;5.07;;;1.35;;
73919;SDS011;62266;53.348;-1.496;2023-04-24T05:50:06;3.33;;;1.20;;
73919;SDS011;62266;53.348;-1.496;2023-04-24T05:52:50;5.10;;;1.53;;
73919;SDS011;62266;53.348;-1.496;2023-04-24T05:55:35;3.45;;;1.10;;
73919;SDS011;62266;53.348;-1.496;2023-04-24T05:58:20;4.35;;;1.30;;
73919;SDS011;62266;53.348;-1.496;2023-04-24T06:01:04;7.13;;;1.42;;
73919;SDS011;62266;53.348;-1.496;2023-04-24T06:03:48;8.57;;;1.70;;
73919;SDS011;62266;53.348;-1.496;2023-04-24T06:06:32;5.47;;;1.70;;
73919;SDS011;62266;53.348;-1.496;2023-04-24T06:09:17;3.17;;;1.48;;
73919;SDS011;62266;53.348;-1.496;2023-04-24T06:12:01;5.22;;;1.30;;
73919;SDS011;62266;53.348;-1.496;2023-04-24T06:14:46;5.60;;;1.20;;
73919;SDS011;62266;53.348;-1.496;2023-04-24T06:17:30;6.63;;;1.50;;
73919;SDS011;62266;53.348;-1.496;2023-04-24T06:20:14;6.13;;;1.30;;
73919;SDS011;62266;53.348;-1.496;2023-04-24T06:22:58;7.47;;;1.60;;
73919;SDS011;62266;53.348;-1.496;2023-04-24T06:25:42;4.82;;;1.40;;
73919;SDS011;62266;53.348;-1.496;2023-04-24T06:28:26;6.90;;;1.58;;
73919;SDS011;62266;53.348;-1.496;2023-04-24T06:31:10;4.90;;;1.63;;
73919;SDS011;62266;53.348;-1.496;2023-04-24T06:33:55;6.60;;;1.40;;
73919;SDS011;62266;53.348;-1.496;2023-04-24T06:36:39;7.38;;;1.65;;
73919;SDS011;62266;53.348;-1.496;2023-04-24T06:39:23;5.03;;;1.30;;
73919;SDS011;62266;53.348;-1.496;2023-04-24T06:44:45;6.82;;;1.77;;
73919;SDS011;62266;53.348;-1.496;2023-04-24T06:47:29;5.47;;;1.47;;
73919;SDS011;62266;53.348;-1.496;2023-04-24T06:50:13;5.03;;;1.67;;
73919;SDS011;62266;53.348;-1.496;2023-04-24T06:52:57;5.55;;;1.70;;
73919;SDS011;62266;53.348;-1.496;2023-04-24T06:55:41;7.05;;;1.60;;
73919;SDS011;62266;53.348;-1.496;2023-04-24T06:58:26;5.43;;;1.90;;
73919;SDS011;62266;53.348;-1.496;2023-04-24T07:01:11;8.43;;;1.83;;
73919;SDS011;62266;53.348;-1.496;2023-04-24T07:03:55;8.15;;;1.75;;
73919;SDS011;62266;53.348;-1.496;2023-04-24T07:06:39;6.72;;;2.00;;
73919;SDS011;62266;53.348;-1.496;2023-04-24T07:09:24;7.05;;;1.80;;
73919;SDS011;62266;53.348;-1.496;2023-04-24T07:12:08;10.13;;;2.38;;
73919;SDS011;62266;53.348;-1.496;2023-04-24T07:14:54;9.17;;;2.17;;
73919;SDS011;62266;53.348;-1.496;2023-04-24T07:17:38;8.05;;;1.90;;
73919;SDS011;62266;53.348;-1.496;2023-04-24T07:20:26;8.93;;;2.30;;
73919;SDS011;62266;53.348;-1.496;2023-04-24T07:23:10;7.70;;;2.40;;
73919;SDS011;62266;53.348;-1.496;2023-04-24T07:25:55;12.00;;;2.40;;
73919;SDS011;62266;53.348;-1.496;2023-04-24T08:04:11;7.50;;;2.55;;
73919;SDS011;62266;53.348;-1.496;2023-04-24T08:06:55;7.93;;;1.95;;
73919;SDS011;62266;53.348;-1.496;2023-04-24T08:09:39;6.73;;;2.07;;
73919;SDS011;62266;53.348;-1.496;2023-04-24T08:12:23;7.22;;;2.55;;
73919;SDS011;62266;53.348;-1.496;2023-04-24T08:15:07;8.20;;;1.92;;
73919;SDS011;62266;53.348;-1.496;2023-04-24T08:17:52;8.93;;;2.17;;
73919;SDS011;62266;53.348;-1.496;2023-04-24T08:20:36;9.60;;;2.42;;
73919;SDS011;62266;53.348;-1.496;2023-04-24T08:23:20;7.00;;;1.87;;
73919;SDS011;62266;53.348;-1.496;2023-04-24T08:26:04;4.82;;;1.83;;
73919;SDS011;62266;53.348;-1.496;2023-04-24T08:28:48;6.03;;;2.15;;
73919;SDS011;62266;53.348;-1.496;2023-04-24T08:31:32;8.38;;;2.63;;
73919;SDS011;62266;53.348;-1.496;2023-04-24T08:34:16;7.60;;;2.17;;
73919;SDS011;62266;53.348;-1.496;2023-04-24T08:37:00;9.07;;;2.43;;
73919;SDS011;62266;53.348;-1.496;2023-04-24T08:39:44;7.85;;;1.95;;
73919;SDS011;62266;53.348;-1.496;2023-04-24T08:42:28;6.32;;;2.30;;
73919;SDS011;62266;53.348;-1.496;2023-04-24T08:45:12;6.43;;;2.35;;
73919;SDS011;62266;53.348;-1.496;2023-04-24T08:47:57;8.20;;;1.90;;
73919;SDS011;62266;53.348;-1.496;2023-04-24T08:50:41;9.87;;;2.13;;
73919;SDS011;62266;53.348;-1.496;2023-04-24T08:53:26;5.25;;;2.17;;
73919;SDS011;62266;53.348;-1.496;2023-04-24T08:56:11;9.07;;;1.90;;
73919;SDS011;62266;53.348;-1.496;2023-04-24T08:58:56;5.60;;;2.15;;
73919;SDS011;62266;53.348;-1.496;2023-04-24T09:01:41;7.25;;;2.22;;
73919;SDS011;62266;53.348;-1.496;2023-04-24T09:04:25;10.60;;;2.07;;
73919;SDS011;62266;53.348;-1.496;2023-04-24T09:07:10;6.28;;;2.30;;
73919;SDS011;62266;53.348;-1.496;2023-04-24T09:09:56;5.85;;;2.25;;
73919;SDS011;62266;53.348;-1.496;2023-04-24T09:12:41;10.40;;;2.72;;
73919;SDS011;62266;53.348;-1.496;2023-04-24T09:15:26;7.57;;;2.22;;
73919;SDS011;62266;53.348;-1.496;2023-04-24T09:18:10;5.67;;;2.23;;
73919;SDS011;62266;53.348;-1.496;2023-04-24T09:23:45;7.63;;;2.30;;
73919;SDS011;62266;53.348;-1.496;2023-04-24T09:26:34;8.77;;;2.85;;
73919;SDS011;62266;53.348;-1.496;2023-04-24T09:29:19;8.75;;;2.22;;
73919;SDS011;62266;53.348;-1.496;2023-04-24T09:32:21;8.87;;;2.50;;
73919;SDS011;62266;53.348;-1.496;2023-04-24T09:35:10;7.40;;;2.55;;
73919;SDS011;62266;53.348;-1.496;2023-04-24T09:37:56;9.30;;;2.42;;
73919;SDS011;62266;53.348;-1.496;2023-04-24T09:40:41;8.43;;;2.20;;
73919;SDS011;62266;53.348;-1.496;2023-04-24T09:43:26;8.15;;;2.70;;
73919;SDS011;62266;53.348;-1.496;2023-04-24T09:46:10;12.83;;;3.17;;
73919;SDS011;62266;53.348;-1.496;2023-04-24T09:48:54;8.32;;;3.35;;
73919;SDS011;62266;53.348;-1.496;2023-04-24T09:51:39;9.98;;;2.25;;
73919;SDS011;62266;53.348;-1.496;2023-04-24T09:54:24;6.95;;;2.65;;
73919;SDS011;62266;53.348;-1.496;2023-04-24T09:57:09;6.45;;;2.80;;
73919;SDS011;62266;53.348;-1.496;2023-04-24T09:59:53;9.77;;;2.87;;
73919;SDS011;62266;53.348;-1.496;2023-04-24T10:02:37;7.05;;;2.42;;
73919;SDS011;62266;53.348;-1.496;2023-04-24T10:05:31;5.63;;;2.40;;
73919;SDS011;62266;53.348;-1.496;2023-04-24T10:08:16;5.05;;;2.17;;
73919;SDS011;62266;53.348;-1.496;2023-04-24T10:11:00;9.02;;;2.83;;
73919;SDS011;62266;53.348;-1.496;2023-04-24T10:13:45;7.97;;;2.40;;
73919;SDS011;62266;53.348;-1.496;2023-04-24T10:16:29;10.95;;;2.55;;
73919;SDS011;62266;53.348;-1.496;2023-04-24T10:19:14;8.48;;;2.40;;
73919;SDS011;62266;53.348;-1.496;2023-04-24T10:21:59;8.52;;;2.20;;
73919;SDS011;62266;53.348;-1.496;2023-04-24T10:24:44;7.82;;;2.15;;
73919;SDS011;62266;53.348;-1.496;2023-04-24T10:27:29;7.57;;;2.17;;
73919;SDS011;62266;53.348;-1.496;2023-04-24T10:30:14;8.13;;;2.97;;
73919;SDS011;62266;53.348;-1.496;2023-04-24T10:32:59;7.47;;;2.50;;
73919;SDS011;62266;53.348;-1.496;2023-04-24T10:35:44;7.63;;;2.17;;
73919;SDS011;62266;53.348;-1.496;2023-04-24T10:38:31;7.95;;;2.22;;
73919;SDS011;62266;53.348;-1.496;2023-04-24T10:41:16;5.30;;;1.80;;
73919;SDS011;62266;53.348;-1.496;2023-04-24T10:44:08;4.68;;;2.22;;
73919;SDS011;62266;53.348;-1.496;2023-04-24T10:46:54;7.32;;;2.05;;
73919;SDS011;62266;53.348;-1.496;2023-04-24T10:49:39;5.68;;;1.98;;
73919;SDS011;62266;53.348;-1.496;2023-04-24T10:52:26;8.52;;;2.15;;
73919;SDS011;62266;53.348;-1.496;2023-04-24T10:58:51;7.38;;;2.30;;
73919;SDS011;62266;53.348;-1.496;2023-04-24T11:01:37;7.30;;;2.17;;
73919;SDS011;62266;53.348;-1.496;2023-04-24T11:04:28;7.38;;;2.10;;
73919;SDS011;62266;53.348;-1.496;2023-04-24T11:07:14;7.03;;;2.00;;
73919;SDS011;62266;53.348;-1.496;2023-04-24T11:09:58;7.30;;;2.40;;
73919;SDS011;62266;53.348;-1.496;2023-04-24T11:12:44;6.80;;;2.50;;
73919;SDS011;62266;53.348;-1.496;2023-04-24T11:15:29;8.68;;;2.40;;
73919;SDS011;62266;53.348;-1.496;2023-04-24T11:18:14;6.55;;;2.30;;
73919;SDS011;62266;53.348;-1.496;2023-04-24T11:20:59;7.32;;;2.72;;
73919;SDS011;62266;53.348;-1.496;2023-04-24T11:23:43;8.43;;;2.30;;
73919;SDS011;62266;53.348;-1.496;2023-04-24T11:26:28;5.82;;;1.73;;
73919;SDS011;62266;53.348;-1.496;2023-04-24T11:29:15;6.88;;;2.35;;
73919;SDS011;62266;53.348;-1.496;2023-04-24T11:32:05;7.07;;;2.15;;
73919;SDS011;62266;53.348;-1.496;2023-04-24T11:34:59;9.07;;;2.50;;
73919;SDS011;62266;53.348;-1.496;2023-04-24T11:37:51;9.43;;;2.70;;
73919;SDS011;62266;53.348;-1.496;2023-04-24T11:40:36;7.85;;;2.60;;
73919;SDS011;62266;53.348;-1.496;2023-04-24T11:43:21;4.93;;;2.28;;
73919;SDS011;62266;53.348;-1.496;2023-04-24T11:46:15;6.18;;;2.42;;
73919;SDS011;62266;53.348;-1.496;2023-04-24T11:49:40;6.50;;;2.25;;
73919;SDS011;62266;53.348;-1.496;2023-04-24T11:52:28;9.10;;;3.90;;
73919;SDS011;62266;53.348;-1.496;2023-04-24T11:57:58;5.40;;;2.10;;
73919;SDS011;62266;53.348;-1.496;2023-04-24T12:00:43;7.00;;;2.60;;
73919;SDS011;62266;53.348;-1.496;2023-04-24T12:03:29;4.10;;;2.03;;
73919;SDS011;62266;53.348;-1.496;2023-04-24T12:06:13;7.70;;;2.40;;
73919;SDS011;62266;53.348;-1.496;2023-04-24T12:08:57;6.80;;;1.90;;
73919;SDS011;62266;53.348;-1.496;2023-04-24T12:11:52;6.25;;;2.50;;
73919;SDS011;62266;53.348;-1.496;2023-04-24T12:14:47;7.57;;;2.45;;
73919;SDS011;62266;53.348;-1.496;2023-04-24T12:17:33;5.82;;;2.10;;
73919;SDS011;62266;53.348;-1.496;2023-04-24T12:20:26;5.47;;;2.10;;
73919;SDS011;62266;53.348;-1.496;2023-04-24T12:23:11;5.18;;;1.65;;
73919;SDS011;62266;53.348;-1.496;2023-04-24T12:25:59;5.57;;;1.80;;
73919;SDS011;62266;53.348;-1.496;2023-04-24T12:28:48;8.68;;;1.67;;
73919;SDS011;62266;53.348;-1.496;2023-04-24T12:31:33;6.45;;;2.05;;
73919;SDS011;62266;53.348;-1.496;2023-04-24T12:34:18;6.50;;;2.13;;
73919;SDS011;62266;53.348;-1.496;2023-04-24T12:37:12;5.60;;;1.70;;
73919;SDS011;62266;53.348;-1.496;2023-04-24T12:40:04;7.82;;;1.77;;
73919;SDS011;62266;53.348;-1.496;2023-04-24T12:42:52;4.38;;;1.80;;
73919;SDS011;62266;53.348;-1.496;2023-04-24T12:45:36;5.22;;;1.88;;
73919;SDS011;62266;53.348;-1.496;2023-04-24T12:48:19;5.57;;;1.73;;
73919;SDS011;62266;53.348;-1.496;2023-04-24T12:51:04;6.55;;;1.63;;
73919;SDS011;62266;53.348;-1.496;2023-04-24T12:53:48;5.55;;;2.20;;
73919;SDS011;62266;53.348;-1.496;2023-04-24T12:56:32;3.78;;;1.75;;
73919;SDS011;62266;53.348;-1.496;2023-04-24T12:59:16;4.30;;;1.83;;
73919;SDS011;62266;53.348;-1.496;2023-04-24T13:02:00;4.83;;;1.97;;
73919;SDS011;62266;53.348;-1.496;2023-04-24T13:04:45;5.65;;;1.60;;
73919;SDS011;62266;53.348;-1.496;2023-04-24T13:07:30;6.72;;;1.92;;
73919;SDS011;62266;53.348;-1.496;2023-04-24T13:10:14;9.95;;;1.90;;
73919;SDS011;62266;53.348;-1.496;2023-04-24T13:12:58;5.43;;;2.17;;
73919;SDS011;62266;53.348;-1.496;2023-04-24T13:15:42;4.03;;;1.50;;
73919;SDS011;62266;53.348;-1.496;2023-04-24T17:30:19;5.95;;;1.70;;
73919;SDS011;62266;53.348;-1.496;2023-04-24T17:33:04;7.35;;;1.70;;
73919;SDS011;62266;53.348;-1.496;2023-04-24T17:35:48;4.00;;;1.67;;
73919;SDS011;62266;53.348;-1.496;2023-04-24T17:38:33;7.53;;;1.58;;
73919;SDS011;62266;53.348;-1.496;2023-04-24T17:41:17;6.43;;;1.92;;
73919;SDS011;62266;53.348;-1.496;2023-04-24T17:44:02;6.70;;;1.92;;
73919;SDS011;62266;53.348;-1.496;2023-04-24T17:46:46;8.35;;;2.45;;
73919;SDS011;62266;53.348;-1.496;2023-04-24T17:52:28;4.85;;;2.00;;
73919;SDS011;62266;53.348;-1.496;2023-04-24T17:55:12;5.15;;;1.90;;
73919;SDS011;62266;53.348;-1.496;2023-04-24T17:57:59;3.65;;;1.35;;
73919;SDS011;62266;53.348;-1.496;2023-04-24T18:00:45;4.63;;;1.10;;
73919;SDS011;62266;53.348;-1.496;2023-04-24T18:03:30;5.53;;;1.77;;
73919;SDS011;62266;53.348;-1.496;2023-04-24T18:06:14;4.18;;;1.75;;
73919;SDS011;62266;53.348;-1.496;2023-04-24T18:09:00;4.90;;;1.50;;
73919;SDS011;62266;53.348;-1.496;2023-04-24T18:11:44;2.47;;;1.23;;
73919;SDS011;62266;53.348;-1.496;2023-04-24T18:14:29;11.30;;;1.80;;
73919;SDS011;62266;53.348;-1.496;2023-04-24T18:17:13;6.20;;;1.50;;
73919;SDS011;62266;53.348;-1.496;2023-04-24T18:19:57;3.15;;;1.50;;
73919;SDS011;62266;53.348;-1.496;2023-04-24T18:22:42;4.93;;;1.50;;
73919;SDS011;62266;53.348;-1.496;2023-04-24T18:25:26;4.95;;;1.50;;
73919;SDS011;62266;53.348;-1.496;2023-04-24T18:28:10;8.32;;;1.75;;
73919;SDS011;62266;53.348;-1.496;2023-04-24T18:30:54;9.40;;;1.90;;
73919;SDS011;62266;53.348;-1.496;2023-04-24T18:33:38;4.03;;;1.60;;
73919;SDS011;62266;53.348;-1.496;2023-04-24T18:36:22;5.90;;;1.80;;
73919;SDS011;62266;53.348;-1.496;2023-04-24T18:39:08;3.85;;;1.55;;
73919;SDS011;62266;53.348;-1.496;2023-04-24T18:41:52;8.13;;;2.00;;
73919;SDS011;62266;53.348;-1.496;2023-04-24T18:44:36;5.57;;;1.50;;
73919;SDS011;62266;53.348;-1.496;2023-04-24T18:47:28;9.70;;;2.03;;
73919;SDS011;62266;53.348;-1.496;2023-04-24T18:50:13;6.57;;;2.05;;
73919;SDS011;62266;53.348;-1.496;2023-04-24T18:53:01;3.63;;;1.55;;
73919;SDS011;62266;53.348;-1.496;2023-04-24T18:55:46;6.10;;;1.95;;
73919;SDS011;62266;53.348;-1.496;2023-04-24T18:58:30;6.43;;;1.90;;
73919;SDS011;62266;53.348;-1.496;2023-04-24T19:01:14;7.40;;;1.92;;
73919;SDS011;62266;53.348;-1.496;2023-04-24T19:03:58;4.80;;;1.80;;
73919;SDS011;62266;53.348;-1.496;2023-04-24T19:06:43;6.95;;;2.30;;
73919;SDS011;62266;53.348;-1.496;2023-04-24T19:09:27;5.85;;;1.80;;
73919;SDS011;62266;53.348;-1.496;2023-04-24T19:12:11;5.03;;;2.03;;
73919;SDS011;62266;53.348;-1.496;2023-04-24T19:14:55;3.70;;;1.63;;
73919;SDS011;62266;53.348;-1.496;2023-04-24T19:17:40;10.82;;;2.20;;
73919;SDS011;62266;53.348;-1.496;2023-04-24T19:20:25;5.93;;;1.88;;
73919;SDS011;62266;53.348;-1.496;2023-04-24T19:23:09;6.35;;;1.63;;
73919;SDS011;62266;53.348;-1.496;2023-04-24T19:25:53;8.27;;;2.03;;
73919;SDS011;62266;53.348;-1.496;2023-04-24T19:28:37;5.72;;;2.15;;
73919;SDS011;62266;53.348;-1.496;2023-04-24T19:31:22;5.22;;;2.17;;
73919;SDS011;62266;53.348;-1.496;2023-04-24T19:34:07;5.43;;;1.90;;
73919;SDS011;62266;53.348;-1.496;2023-04-24T19:36:51;6.22;;;1.92;;
73919;SDS011;62266;53.348;-1.496;2023-04-24T19:39:36;5.67;;;2.20;;
73919;SDS011;62266;53.348;-1.496;2023-04-24T19:42:20;7.15;;;2.30;;
73919;SDS011;62266;53.348;-1.496;2023-04-24T19:45:05;8.82;;;2.85;;
73919;SDS011;62266;53.348;-1.496;2023-04-24T19:47:52;9.82;;;2.72;;
73919;SDS011;62266;53.348;-1.496;2023-04-24T19:50:38;6.30;;;2.08;;
73919;SDS011;62266;53.348;-1.496;2023-04-24T19:53:22;8.13;;;2.63;;
73919;SDS011;62266;53.348;-1.496;2023-04-24T19:56:06;9.75;;;2.78;;
73919;SDS011;62266;53.348;-1.496;2023-04-24T19:58:51;8.52;;;3.30;;
73919;SDS011;62266;53.348;-1.496;2023-04-24T20:01:35;7.30;;;2.53;;
73919;SDS011;62266;53.348;-1.496;2023-04-24T20:04:22;7.80;;;2.95;;
73919;SDS011;62266;53.348;-1.496;2023-04-24T20:07:06;10.87;;;4.00;;
73919;SDS011;62266;53.348;-1.496;2023-04-24T20:09:50;7.78;;;2.83;;
73919;SDS011;62266;53.348;-1.496;2023-04-24T20:12:34;9.55;;;3.50;;
73919;SDS011;62266;53.348;-1.496;2023-04-24T20:15:19;9.98;;;2.78;;
73919;SDS011;62266;53.348;-1.496;2023-04-24T20:18:03;9.68;;;2.60;;
73919;SDS011;62266;53.348;-1.496;2023-04-24T20:20:48;8.63;;;2.63;;
73919;SDS011;62266;53.348;-1.496;2023-04-24T20:23:32;6.85;;;2.20;;
73919;SDS011;62266;53.348;-1.496;2023-04-24T20:26:16;10.13;;;3.20;;
73919;SDS011;62266;53.348;-1.496;2023-04-24T20:29:01;7.30;;;2.83;;
73919;SDS011;62266;53.348;-1.496;2023-04-24T20:31:46;13.95;;;4.30;;
73919;SDS011;62266;53.348;-1.496;2023-04-24T20:34:30;9.40;;;3.90;;
73919;SDS011;62266;53.348;-1.496;2023-04-24T20:37:14;9.75;;;4.05;;
73919;SDS011;62266;53.348;-1.496;2023-04-24T20:39:58;10.32;;;3.30;;
73919;SDS011;62266;53.348;-1.496;2023-04-24T20:42:48;12.68;;;3.53;;
73919;SDS011;62266;53.348;-1.496;2023-04-24T20:45:33;8.80;;;3.08;;
73919;SDS011;62266;53.348;-1.496;2023-04-24T20:48:17;9.77;;;3.20;;
73919;SDS011;62266;53.348;-1.496;2023-04-24T20:51:02;8.90;;;3.00;;
73919;SDS011;62266;53.348;-1.496;2023-04-24T20:53:46;9.13;;;3.03;;
73919;SDS011;62266;53.348;-1.496;2023-04-24T20:56:32;4.85;;;2.20;;
73919;SDS011;62266;53.348;-1.496;2023-04-24T20:59:16;6.63;;;2.03;;
73919;SDS011;62266;53.348;-1.496;2023-04-24T21:02:01;10.60;;;2.40;;
73919;SDS011;62266;53.348;-1.496;2023-04-24T21:04:45;6.70;;;2.65;;
73919;SDS011;62266;53.348;-1.496;2023-04-24T21:07:29;5.80;;;2.50;;
73919;SDS011;62266;53.348;-1.496;2023-04-24T21:10:13;8.35;;;3.17;;
73919;SDS011;62266;53.348;-1.496;2023-04-24T21:12:58;7.65;;;2.70;;
73919;SDS011;62266;53.348;-1.496;2023-04-24T21:15:42;9.63;;;2.60;;
73919;SDS011;62266;53.348;-1.496;2023-04-24T21:18:26;5.47;;;2.10;;
73919;SDS011;62266;53.348;-1.496;2023-04-24T21:21:11;8.48;;;2.15;;
73919;SDS011;62266;53.348;-1.496;2023-04-24T21:23:55;5.47;;;2.00;;
73919;SDS011;62266;53.348;-1.496;2023-04-24T21:26:39;9.20;;;2.20;;